createdAt,value
2018-10-11T00:02:33.458Z,21.43
2018-10-11T00:08:28.466Z,20.49
2018-10-11T00:14:23.472Z,19.43
2018-10-11T00:20:18.467Z,22.1
2018-10-11T00:26:13.496Z,21.13
2018-10-11T00:32:08.525Z,19.42
2018-10-11T00:38:03.519Z,23.28
2018-10-11T00:43:58.490Z,20.5
2018-10-11T00:49:53.508Z,21.67
2018-10-11T00:55:48.539Z,21.73
2018-10-11T01:01:43.518Z,18.24
2018-10-11T01:07:38.539Z,20.07
2018-10-11T01:13:33.544Z,21.73
2018-10-11T01:19:28.548Z,21.36
2018-10-11T01:25:23.537Z,18.47
2018-10-11T01:31:18.546Z,23.17
2018-10-11T01:37:13.638Z,18.95
2018-10-11T01:43:08.556Z,19.77
2018-10-11T01:49:03.570Z,17.96
2018-10-11T01:54:58.591Z,21.48
2018-10-11T02:00:53.626Z,19.19
2018-10-11T02:06:48.576Z,19.53
2018-10-11T02:12:43.593Z,21.04
2018-10-11T02:18:38.579Z,20.97
2018-10-11T02:24:33.622Z,19.9
2018-10-11T02:30:28.611Z,17.49
2018-10-11T02:36:23.587Z,22.44
2018-10-11T02:42:18.640Z,23.55
2018-10-11T02:48:13.632Z,22.25
2018-10-11T02:54:08.619Z,20.99
2018-10-11T03:00:03.624Z,20.24
2018-10-11T03:05:58.619Z,22.01
2018-10-11T03:11:53.678Z,19.11
2018-10-11T03:17:48.720Z,18.34
2018-10-11T03:23:43.682Z,17.62
2018-10-11T03:29:38.690Z,17.3
2018-10-11T03:35:33.680Z,21.35
2018-10-11T03:41:28.661Z,20.19
2018-10-11T03:47:23.714Z,17.4
2018-10-11T03:53:18.677Z,18.45
2018-10-11T03:59:13.683Z,15.82
2018-10-11T04:05:08.681Z,18.86
2018-10-11T04:11:03.710Z,18.78
2018-10-11T04:16:58.692Z,20.39
2018-10-11T04:22:53.712Z,22.6
2018-10-11T04:28:48.766Z,15.95
2018-10-11T04:34:43.760Z,17.96
2018-10-11T04:40:38.728Z,25.88
2018-10-11T04:46:33.726Z,28.88
2018-10-11T04:52:28.748Z,21.23
2018-10-11T04:58:23.723Z,18.67
2018-10-11T05:04:18.795Z,22.9
2018-10-11T05:10:13.756Z,21.34
2018-10-11T05:16:08.809Z,27.08
2018-10-11T05:22:03.758Z,55.92
2018-10-11T05:27:58.762Z,47.33
2018-10-11T05:33:53.824Z,44.52
2018-10-11T05:39:48.772Z,46.86
2018-10-11T05:45:43.774Z,41.72
2018-10-11T05:51:38.879Z,26.82
2018-10-11T05:57:33.789Z,28.01
2018-10-11T06:03:28.802Z,24.6
2018-10-11T06:09:23.840Z,22.65
2018-10-11T06:15:18.808Z,29.88
2018-10-11T06:21:13.837Z,34.99
2018-10-11T06:27:08.847Z,32.59
2018-10-11T06:33:03.883Z,31.07
2018-10-11T06:38:58.871Z,29.27
2018-10-11T06:44:53.835Z,32.88
2018-10-11T06:50:48.849Z,29.48
2018-10-11T06:56:43.846Z,29.73
2018-10-11T07:02:38.866Z,32.45
2018-10-11T07:08:33.858Z,25.85
2018-10-11T07:14:28.901Z,30.09
2018-10-11T07:20:23.876Z,28
2018-10-11T07:26:18.904Z,25.95
2018-10-11T07:32:13.904Z,27.09
2018-10-11T07:38:08.897Z,28.58
2018-10-11T07:44:03.891Z,28.5
2018-10-11T07:49:58.911Z,26.12
2018-10-11T07:55:53.897Z,29.55
2018-10-11T08:01:49.027Z,29.32
2018-10-11T08:07:44.092Z,47.96
2018-10-11T08:13:39.199Z,42.6
2018-10-11T08:19:34.059Z,39.04
2018-10-11T08:25:29.253Z,39.2
2018-10-11T08:31:23.943Z,38.42
2018-10-11T08:37:18.966Z,37.13
2018-10-11T08:43:13.955Z,48.11
2018-10-11T08:49:08.976Z,38.36
2018-10-11T08:55:04.003Z,38.32
2018-10-11T09:00:58.966Z,35.95
2018-10-11T09:06:53.990Z,45.67
2018-10-11T09:12:48.994Z,38.56
2018-10-11T09:18:43.977Z,34.1
2018-10-11T09:24:39.060Z,33.37
2018-10-11T09:30:33.993Z,33.79
2018-10-11T09:36:29.053Z,34.87
2018-10-11T09:42:24.020Z,34.62
2018-10-11T09:48:19.012Z,32.57
2018-10-11T09:54:14.074Z,31.35
2018-10-11T10:00:09.031Z,30.38
2018-10-11T10:06:04.017Z,37.2
2018-10-11T10:11:59.043Z,37.88
2018-10-11T10:17:54.046Z,36.11
2018-10-11T10:23:49.099Z,36.22
2018-10-11T10:29:44.111Z,37.26
2018-10-11T10:35:39.106Z,39.76
2018-10-11T10:41:34.055Z,37.34
2018-10-11T10:47:29.056Z,37.5
2018-10-11T10:53:24.079Z,38.6
2018-10-11T10:59:19.083Z,34.41
2018-10-11T11:05:14.074Z,30.44
2018-10-11T11:11:09.150Z,31.32
2018-10-11T11:17:04.091Z,31.61
2018-10-11T11:22:59.123Z,29.19
2018-10-11T11:28:54.123Z,30
2018-10-11T11:34:49.141Z,28.13
2018-10-11T11:40:44.127Z,29.49
2018-10-11T11:46:39.118Z,26.04
2018-10-11T11:52:34.161Z,27.21
2018-10-11T11:58:29.165Z,23.85
2018-10-11T12:04:24.141Z,26.27
2018-10-11T12:10:19.170Z,24.51
2018-10-11T12:16:14.182Z,27.88
2018-10-11T12:22:09.215Z,22.72
2018-10-11T12:28:04.185Z,22
2018-10-11T12:33:59.235Z,21.3
2018-10-11T12:39:54.186Z,19.7
2018-10-11T12:45:49.202Z,19.22
2018-10-11T12:51:44.307Z,17.22
2018-10-11T12:57:39.256Z,17.12
2018-10-11T13:03:34.210Z,18.35
2018-10-11T13:09:29.279Z,16.19
2018-10-11T13:15:24.199Z,19.28
2018-10-11T13:21:19.195Z,17.69
2018-10-11T13:27:14.230Z,14.36
2018-10-11T13:33:09.221Z,13.27
2018-10-11T13:39:04.258Z,12.3
2018-10-11T13:44:59.236Z,11.03
2018-10-11T13:50:54.247Z,10.18
2018-10-11T13:56:55.533Z,10.45
2018-10-11T14:02:44.239Z,11.62
2018-10-11T14:08:39.247Z,11.12
2018-10-11T14:14:34.244Z,16.92
2018-10-11T14:20:29.315Z,16.52
2018-10-11T14:26:24.277Z,16.46
2018-10-11T14:32:19.313Z,12.01
2018-10-11T14:38:14.289Z,15.75
2018-10-11T14:44:09.316Z,14.69
2018-10-11T14:50:04.337Z,16.52
2018-10-11T14:55:59.306Z,20.57
2018-10-11T15:01:54.312Z,12.83
2018-10-11T15:07:49.336Z,12.4
2018-10-11T15:13:44.369Z,14.77
2018-10-11T15:19:39.322Z,16.84
2018-10-11T15:25:34.372Z,16.41
2018-10-11T15:31:29.342Z,15.72
2018-10-11T15:37:24.350Z,18.99
2018-10-11T15:43:19.411Z,18.89
2018-10-11T15:49:14.346Z,20.73
2018-10-11T15:55:09.386Z,16.98
2018-10-11T16:01:04.361Z,21.26
2018-10-11T16:06:59.365Z,20.65
2018-10-11T16:12:54.376Z,14.53
2018-10-11T16:18:49.395Z,22.93
2018-10-11T16:24:44.454Z,21.3
2018-10-11T16:30:39.398Z,23.83
2018-10-11T16:36:34.382Z,20.95
2018-10-11T16:42:29.395Z,21.85
2018-10-11T16:48:24.466Z,22.8
2018-10-11T16:54:19.465Z,22.24
2018-10-11T17:00:14.432Z,15.55
2018-10-11T17:06:09.428Z,14.67
2018-10-11T17:12:04.446Z,16.36
2018-10-11T17:17:59.457Z,15.45
2018-10-11T17:23:54.460Z,12.48
2018-10-11T17:29:49.516Z,15.13
2018-10-11T17:35:44.450Z,12.26
2018-10-11T17:41:39.466Z,16.99
2018-10-11T17:47:34.482Z,14.55
2018-10-11T17:53:29.462Z,11.96
2018-10-11T17:59:24.530Z,10.9
2018-10-11T18:05:19.477Z,11.78
2018-10-11T18:11:14.502Z,10.87
2018-10-11T18:17:09.546Z,13.08
2018-10-11T18:23:04.514Z,12.85
2018-10-11T18:28:59.550Z,10.04
2018-10-11T18:34:54.519Z,12.25
2018-10-11T18:40:49.527Z,11.28
2018-10-11T18:46:44.541Z,11.14
2018-10-11T18:52:39.520Z,11.4
2018-10-11T18:58:34.538Z,9.07
2018-10-11T19:04:29.539Z,12.3
2018-10-11T19:10:24.544Z,11.51
2018-10-11T19:16:19.592Z,10.83
2018-10-11T19:22:14.561Z,9.99
2018-10-11T19:28:09.567Z,11.88
2018-10-11T19:34:04.570Z,9.21
2018-10-11T19:39:59.590Z,10.24
2018-10-11T19:45:54.586Z,12.75
2018-10-11T19:51:49.593Z,11.18
2018-10-11T19:57:44.601Z,9.99
2018-10-11T20:03:39.588Z,9.31
2018-10-11T20:09:34.591Z,11.25
2018-10-11T20:15:29.597Z,10.84
2018-10-11T20:21:24.625Z,15.34
2018-10-11T20:27:19.615Z,11.85
2018-10-11T20:33:14.627Z,10.62
2018-10-11T20:39:09.669Z,10.17
2018-10-11T20:45:04.631Z,8.67
2018-10-11T20:50:59.685Z,11.73
2018-10-11T20:56:54.668Z,10.43
2018-10-11T21:02:49.643Z,10.39
2018-10-11T21:08:44.698Z,12.17
2018-10-11T21:14:39.678Z,10.73
2018-10-11T21:20:34.722Z,9.81
2018-10-11T21:26:29.707Z,11.5
2018-10-11T21:32:24.683Z,11.19
2018-10-11T21:38:19.679Z,13.43
2018-10-11T21:44:14.724Z,10.28
2018-10-11T21:50:09.691Z,12.06
2018-10-11T21:56:04.714Z,22.02
2018-10-11T22:01:59.710Z,9.49
2018-10-11T22:07:54.705Z,10.61
2018-10-11T22:13:49.723Z,13.61
2018-10-11T22:19:44.713Z,10.48
2018-10-11T22:25:39.740Z,10.51
2018-10-11T22:31:34.770Z,12.49
2018-10-11T22:37:29.755Z,10.34
2018-10-11T22:43:24.723Z,10.56
2018-10-11T22:49:19.744Z,10.15
2018-10-11T22:55:14.815Z,10.27
2018-10-11T23:01:09.751Z,14.66
2018-10-11T23:07:04.763Z,10.91
2018-10-11T23:12:59.800Z,11.9
2018-10-11T23:18:54.795Z,10.4
2018-10-11T23:24:49.782Z,9.66
2018-10-11T23:30:44.791Z,8.96
2018-10-11T23:36:39.814Z,11.83
2018-10-11T23:42:34.795Z,13.63
2018-10-11T23:48:29.803Z,10.34
2018-10-11T23:54:24.806Z,11.51
